Chennai, India
Current Conditions -  °F | °C
As of 1:40 AM on Sunday 23 Nov 2014 (Local Time) from VOMM Reporting Station
Haze Haze  
Wind Chill: 75°   Ceiling: Unl
Heat Index: 75°   Visibility: 3mi
Dew Point: 72°   Wind: 0mph
Humidity: 89%   Direction: NA
Pressure: 29.85"   Gusts: NA
Location:  13.06°N, 80.25°E
Report Text: VOMM 222040Z 00000KT 5000 BR FEW020 24/22 Q1011 NOSIG
Loading
Personal Weather Stations






























Interactive Weather Map New forecast layout! Learn more

10-Day Weather Forecast

Advertisements
Track Severe Weather on mobile